Terminal Aerodrome Forecast
Issued by NWS Salt Lake City, UT

Home | Current Version | Previous Version | Text Only | Print | Product List | Glossary On
Versions: 1 2 3 4 5 6 7 8 9 10 11 12 13 14 15 16 17 18 19 20 21 22 23 24 25 26 27 28 29 30 31 32 33 34 35 36
000
FTUS45 KSLC 040533
TAFCDC
TAF
KCDC 040533Z 0406/0506 15006KT P6SM FEW100 BKN130
     FM041900 22009KT P6SM VCTS SCT080CB BKN120
     FM050200 16005KT P6SM FEW100 BKN120=

USA.gov is the U.S. government's official web portal to all federal, state and local government web resources and services.